Time;durP1;ratioP1;P1;durP2;ratioP2;P2;SDS_P1;SDS_P2;PMS_P1;PMS_P2;Temp;Humidity;BMP_temperature;BMP_pressure;BME280_temperature;BME280_humidity;BME280_pressure;Samples;Min_cycle;Max_cycle;Signal;HPM_P1;HPM_P2
2022/01/29 00:01:01;;;;;;;3.87;3.03;;;;;;;;;;5059444;28;20190;-72
2022/01/29 00:03:30;;;;;;;4.93;2.73;;;;;;;;;;5061734;28;20202;-72
2022/01/29 00:05:59;;;;;;;1.37;1.30;;;;;;;;;;5060519;28;20230;-71
2022/01/29 00:08:27;;;;;;;8.67;2.00;;;;;;;;;;5059085;28;20269;-73
2022/01/29 00:11:00;;;;;;;1.70;1.60;;;;;;;;;;5060797;28;20205;-72
2022/01/29 00:13:27;;;;;;;0.57;0.57;;;;;;;;;;5059876;28;20206;-73
2022/01/29 00:15:55;;;;;;;2.60;2.27;;;;;;;;;;5060510;28;20650;-71
2022/01/29 00:18:22;;;;;;;1.70;1.60;;;;;;;;;;5060581;28;20306;-71
2022/01/29 00:20:50;;;;;;;2.33;2.13;;;;;;;;;;5061009;28;20206;-70
2022/01/29 00:23:18;;;;;;;2.37;2.00;;;;;;;;;;5059915;28;20195;-73
2022/01/29 00:25:46;;;;;;;1.90;1.50;;;;;;;;;;5061786;28;20246;-71
2022/01/29 00:28:14;;;;;;;1.70;1.60;;;;;;;;;;5059374;28;20227;-71
2022/01/29 00:30:43;;;;;;;2.03;1.83;;;;;;;;;;5060630;28;20562;-72
2022/01/29 00:33:10;;;;;;;2.23;2.10;;;;;;;;;;5058778;28;20199;-72
2022/01/29 00:35:38;;;;;;;7.17;2.17;;;;;;;;;;5061084;28;20209;-71
2022/01/29 00:38:05;;;;;;;1.27;0.87;;;;;;;;;;5059789;28;20942;-71
2022/01/29 00:40:36;;;;;;;4.07;2.53;;;;;;;;;;5059050;28;20584;-72
2022/01/29 00:43:04;;;;;;;1.10;1.07;;;;;;;;;;5060699;28;20205;-71
2022/01/29 00:45:32;;;;;;;2.27;1.97;;;;;;;;;;5059405;28;20618;-73
2022/01/29 00:47:59;;;;;;;1.17;1.03;;;;;;;;;;5060249;28;20190;-72
2022/01/29 00:50:27;;;;;;;2.17;1.97;;;;;;;;;;5059316;28;20257;-72
2022/01/29 00:52:54;;;;;;;6.07;1.63;;;;;;;;;;5058971;28;20676;-73
2022/01/29 00:55:22;;;;;;;1.33;0.60;;;;;;;;;;5059765;28;20203;-72
2022/01/29 00:57:51;;;;;;;0.97;0.97;;;;;;;;;;5060454;28;20214;-72
2022/01/29 01:00:18;;;;;;;0.80;0.80;;;;;;;;;;5060066;28;20203;-72
2022/01/29 01:02:46;;;;;;;1.00;1.00;;;;;;;;;;5059921;28;20584;-72
2022/01/29 01:05:13;;;;;;;1.73;1.20;;;;;;;;;;5059399;28;20226;-72
2022/01/29 01:07:41;;;;;;;2.10;1.67;;;;;;;;;;5059263;28;20206;-74
2022/01/29 01:10:10;;;;;;;0.47;0.47;;;;;;;;;;5060456;28;20222;-72
2022/01/29 01:12:37;;;;;;;4.50;1.83;;;;;;;;;;5059180;28;20207;-71
2022/01/29 01:15:07;;;;;;;1.63;1.43;;;;;;;;;;5059192;28;20226;-73
2022/01/29 01:17:35;;;;;;;1.40;1.23;;;;;;;;;;5060006;28;20191;-72
2022/01/29 01:20:02;;;;;;;1.17;1.07;;;;;;;;;;5059951;28;20211;-72
2022/01/29 01:22:29;;;;;;;0.30;0.30;;;;;;;;;;5059079;28;20195;-73
2022/01/29 01:24:57;;;;;;;1.57;1.10;;;;;;;;;;5060690;28;20198;-72
2022/01/29 01:27:25;;;;;;;2.53;2.37;;;;;;;;;;5060838;28;20222;-73
2022/01/29 01:29:52;;;;;;;1.50;1.40;;;;;;;;;;5058102;28;20226;-73
2022/01/29 01:32:23;;;;;;;7.47;3.00;;;;;;;;;;5057052;28;20191;-73
2022/01/29 01:34:54;;;;;;;2.70;1.27;;;;;;;;;;5059146;28;20198;-74
2022/01/29 01:37:33;;;;;;;1.60;1.43;;;;;;;;;;5058817;28;20203;-73
2022/01/29 01:40:01;;;;;;;0.83;0.83;;;;;;;;;;5060490;28;20191;-72
2022/01/29 01:42:28;;;;;;;1.10;1.03;;;;;;;;;;5060302;28;20198;-72
2022/01/29 01:44:57;;;;;;;3.30;2.43;;;;;;;;;;5057988;28;20664;-73
2022/01/29 01:47:26;;;;;;;0.90;0.87;;;;;;;;;;5058441;28;20223;-72
2022/01/29 01:49:53;;;;;;;3.53;2.87;;;;;;;;;;5058187;28;20201;-73
2022/01/29 01:52:20;;;;;;;5.40;3.53;;;;;;;;;;5056940;28;20203;-73
2022/01/29 01:54:48;;;;;;;2.43;1.23;;;;;;;;;;5057555;28;20294;-72
2022/01/29 01:57:17;;;;;;;0.50;0.40;;;;;;;;;;5058859;28;20206;-73
2022/01/29 01:59:44;;;;;;;1.50;1.10;;;;;;;;;;5057132;28;20282;-72
2022/01/29 02:02:12;;;;;;;3.43;2.93;;;;;;;;;;5059066;28;20203;-73
2022/01/29 02:04:41;;;;;;;3.43;2.47;;;;;;;;;;5060206;28;20790;-75
2022/01/29 02:07:08;;;;;;;1.10;1.03;;;;;;;;;;5056365;28;20222;-74
2022/01/29 02:09:38;;;;;;;1.43;1.40;;;;;;;;;;5057987;28;20668;-73
2022/01/29 02:12:05;;;;;;;2.00;1.80;;;;;;;;;;5056607;28;20735;-73
2022/01/29 02:14:34;;;;;;;2.63;1.63;;;;;;;;;;5059101;28;20195;-73
2022/01/29 02:17:02;;;;;;;1.47;1.37;;;;;;;;;;5052076;28;20202;-70
2022/01/29 02:19:30;;;;;;;1.47;1.37;;;;;;;;;;5059370;28;20282;-73
2022/01/29 02:21:59;;;;;;;1.80;1.70;;;;;;;;;;5057635;28;20759;-73
2022/01/29 02:24:27;;;;;;;1.37;0.93;;;;;;;;;;5058233;28;20195;-73
2022/01/29 02:26:55;;;;;;;1.43;1.37;;;;;;;;;;5057467;28;20227;-73
2022/01/29 02:29:24;;;;;;;3.77;1.83;;;;;;;;;;5058284;28;20223;-74
2022/01/29 02:31:52;;;;;;;1.13;0.53;;;;;;;;;;5058380;28;20203;-72
2022/01/29 02:34:20;;;;;;;0.57;0.57;;;;;;;;;;5060417;28;20201;-72
2022/01/29 02:36:47;;;;;;;3.03;2.53;;;;;;;;;;5061329;28;20231;-73
2022/01/29 02:39:19;;;;;;;6.10;2.57;;;;;;;;;;5063900;28;20665;-72
2022/01/29 02:41:46;;;;;;;1.43;1.33;;;;;;;;;;5062273;28;20575;-72
2022/01/29 02:44:17;;;;;;;1.33;1.27;;;;;;;;;;5061658;28;20199;-72
2022/01/29 02:46:52;;;;;;;1.03;1.03;;;;;;;;;;5063477;28;20229;-73
2022/01/29 02:49:21;;;;;;;1.07;0.97;;;;;;;;;;5060206;28;20651;-73
2022/01/29 02:51:49;;;;;;;1.80;1.33;;;;;;;;;;5063016;28;20206;-71
2022/01/29 02:54:18;;;;;;;1.60;1.50;;;;;;;;;;5062300;28;20202;-72
2022/01/29 02:56:45;;;;;;;1.87;1.17;;;;;;;;;;5062542;28;20214;-72
2022/01/29 02:59:13;;;;;;;2.40;2.00;;;;;;;;;;5062442;28;20190;-71
2022/01/29 03:01:40;;;;;;;3.17;2.87;;;;;;;;;;5061574;28;20199;-72
2022/01/29 03:04:08;;;;;;;1.63;1.53;;;;;;;;;;5062340;28;20202;-71
2022/01/29 03:06:35;;;;;;;1.37;1.27;;;;;;;;;;5061846;28;20223;-72
2022/01/29 03:09:03;;;;;;;1.17;1.13;;;;;;;;;;5062397;28;20206;-72
2022/01/29 03:11:32;;;;;;;2.73;2.53;;;;;;;;;;5061805;28;20190;-72
2022/01/29 03:13:59;;;;;;;0.50;0.50;;;;;;;;;;5060488;28;20822;-73
2022/01/29 03:16:27;;;;;;;2.03;1.77;;;;;;;;;;5059788;28;20210;-72
2022/01/29 03:18:54;;;;;;;6.70;1.10;;;;;;;;;;5061086;28;20191;-72
2022/01/29 03:21:21;;;;;;;0.90;0.87;;;;;;;;;;5061795;28;20187;-72
2022/01/29 03:23:49;;;;;;;1.20;1.10;;;;;;;;;;5061160;28;20203;-72
2022/01/29 03:26:16;;;;;;;1.97;1.87;;;;;;;;;;5061909;28;20221;-72
2022/01/29 03:28:45;;;;;;;1.10;1.00;;;;;;;;;;5063819;28;20314;-72
2022/01/29 03:31:13;;;;;;;3.67;2.20;;;;;;;;;;5063926;28;20679;-72
2022/01/29 03:33:40;;;;;;;2.00;1.60;;;;;;;;;;5061034;28;20194;-71
2022/01/29 03:36:07;;;;;;;4.07;2.03;;;;;;;;;;5061453;28;20217;-72
2022/01/29 03:38:39;;;;;;;2.97;1.63;;;;;;;;;;5062855;28;20206;-72
2022/01/29 03:41:07;;;;;;;3.70;1.73;;;;;;;;;;5061983;28;20217;-72
2022/01/29 03:43:42;;;;;;;2.30;0.80;;;;;;;;;;5064248;28;20231;-72
2022/01/29 03:46:11;;;;;;;2.93;2.63;;;;;;;;;;5061190;28;20228;-72
2022/01/29 03:48:38;;;;;;;0.43;0.43;;;;;;;;;;5064197;28;20198;-72
2022/01/29 03:51:05;;;;;;;0.10;0.10;;;;;;;;;;5065256;28;20203;-73
2022/01/29 03:53:33;;;;;;;4.00;1.03;;;;;;;;;;5067293;28;20202;-73
2022/01/29 03:56:00;;;;;;;2.00;1.10;;;;;;;;;;5061145;28;20290;-72
2022/01/29 03:58:27;;;;;;;1.33;0.90;;;;;;;;;;5060587;28;20672;-71
2022/01/29 04:00:55;;;;;;;1.90;0.83;;;;;;;;;;5062674;28;20206;-72
2022/01/29 04:03:23;;;;;;;3.93;1.10;;;;;;;;;;5060877;28;20203;-71
2022/01/29 04:05:50;;;;;;;0.90;0.43;;;;;;;;;;5061946;28;20284;-72
2022/01/29 04:08:18;;;;;;;1.10;1.10;;;;;;;;;;5059823;28;20292;-72
2022/01/29 04:10:47;;;;;;;0.93;0.83;;;;;;;;;;5060331;28;20248;-72
2022/01/29 04:13:21;;;;;;;0.73;0.73;;;;;;;;;;5061432;28;20195;-72
2022/01/29 04:15:51;;;;;;;5.03;1.10;;;;;;;;;;5060318;28;20725;-73
2022/01/29 04:18:21;;;;;;;0.57;0.33;;;;;;;;;;5058627;28;20676;-72
2022/01/29 04:20:50;;;;;;;2.00;0.50;;;;;;;;;;5062608;28;20191;-72
2022/01/29 04:23:18;;;;;;;1.37;0.97;;;;;;;;;;5060438;28;20235;-70
2022/01/29 04:25:45;;;;;;;1.37;0.30;;;;;;;;;;5061719;28;20308;-73
2022/01/29 04:28:14;;;;;;;3.83;0.40;;;;;;;;;;5059479;28;20233;-71
2022/01/29 04:30:45;;;;;;;2.93;1.27;;;;;;;;;;5061213;28;20290;-72
2022/01/29 04:33:28;;;;;;;1.40;0.87;;;;;;;;;;5058665;28;20199;-72
2022/01/29 04:35:57;;;;;;;0.60;0.53;;;;;;;;;;5059887;28;20553;-72
2022/01/29 04:38:25;;;;;;;0.37;0.37;;;;;;;;;;5060202;28;20281;-71
2022/01/29 04:40:52;;;;;;;1.07;0.40;;;;;;;;;;5060821;28;20553;-71
2022/01/29 04:43:19;;;;;;;2.83;1.13;;;;;;;;;;5060147;28;20198;-73
2022/01/29 04:45:47;;;;;;;1.37;0.83;;;;;;;;;;5059348;28;20592;-72
2022/01/29 04:48:14;;;;;;;0.60;0.47;;;;;;;;;;5058543;28;20242;-73
2022/01/29 04:50:43;;;;;;;0.37;0.30;;;;;;;;;;5060120;28;20191;-72
2022/01/29 04:53:11;;;;;;;1.03;0.87;;;;;;;;;;5059423;28;20206;-71
2022/01/29 04:55:39;;;;;;;1.63;0.50;;;;;;;;;;5060611;28;20198;-72
2022/01/29 04:58:06;;;;;;;1.70;0.60;;;;;;;;;;5058213;28;20199;-71
2022/01/29 05:00:35;;;;;;;4.10;2.03;;;;;;;;;;5059605;28;20194;-71
2022/01/29 05:03:07;;;;;;;2.33;1.47;;;;;;;;;;5057208;28;20202;-73
2022/01/29 05:05:35;;;;;;;1.27;1.23;;;;;;;;;;5052765;28;20223;-72
2022/01/29 05:08:02;;;;;;;0.77;0.77;;;;;;;;;;5051091;28;20273;-72
2022/01/29 05:10:31;;;;;;;1.70;0.60;;;;;;;;;;5051819;28;20268;-71
2022/01/29 05:13:02;;;;;;;3.60;1.40;;;;;;;;;;5055786;28;20202;-73
2022/01/29 05:15:36;;;;;;;1.50;0.57;;;;;;;;;;5051727;28;20197;-72
2022/01/29 05:29:05;;;;;;;0.97;0.90;;;;;;;;;;5054865;28;20241;-72
2022/01/29 05:31:33;;;;;;;0.30;0.30;;;;;;;;;;5052699;28;20210;-72
2022/01/29 05:34:01;;;;;;;0.73;0.63;;;;;;;;;;5053470;28;20623;-72
2022/01/29 05:36:28;;;;;;;1.23;0.63;;;;;;;;;;5050519;28;20190;-72
2022/01/29 05:38:55;;;;;;;0.63;0.53;;;;;;;;;;5054011;28;20195;-72
2022/01/29 05:41:24;;;;;;;3.13;1.00;;;;;;;;;;5053943;28;20774;-73
2022/01/29 05:43:52;;;;;;;1.13;0.63;;;;;;;;;;5051778;28;20201;-71
2022/01/29 05:46:19;;;;;;;0.30;0.30;;;;;;;;;;5051892;28;20203;-73
2022/01/29 05:48:46;;;;;;;2.80;0.43;;;;;;;;;;5053664;28;20226;-73
2022/01/29 05:51:14;;;;;;;0.80;0.80;;;;;;;;;;5055847;28;21022;-72
2022/01/29 05:53:41;;;;;;;1.30;1.03;;;;;;;;;;5053148;28;20206;-72
2022/01/29 05:56:09;;;;;;;0.97;0.80;;;;;;;;;;5050483;28;20205;-74
2022/01/29 05:58:38;;;;;;;1.70;0.80;;;;;;;;;;5052330;28;20195;-71
2022/01/29 06:01:05;;;;;;;0.43;0.37;;;;;;;;;;5052848;28;20495;-71
2022/01/29 06:03:33;;;;;;;0.90;0.90;;;;;;;;;;5053279;28;20597;-73
2022/01/29 06:06:00;;;;;;;0.70;0.60;;;;;;;;;;5053061;28;20202;-72
2022/01/29 06:08:27;;;;;;;0.43;0.43;;;;;;;;;;5055566;28;20238;-72
2022/01/29 06:10:54;;;;;;;0.10;0.10;;;;;;;;;;5056472;28;20186;-71
2022/01/29 06:13:22;;;;;;;1.10;0.47;;;;;;;;;;5055691;28;20200;-72
2022/01/29 06:15:52;;;;;;;0.40;0.40;;;;;;;;;;5055728;28;20210;-72
2022/01/29 06:18:20;;;;;;;0.17;0.17;;;;;;;;;;5055275;28;20199;-73
2022/01/29 06:20:48;;;;;;;0.17;0.13;;;;;;;;;;5055520;28;20203;-73
2022/01/29 06:23:18;;;;;;;0.30;0.30;;;;;;;;;;5056751;28;20197;-71
2022/01/29 06:25:45;;;;;;;4.13;0.97;;;;;;;;;;5055844;28;20198;-73
2022/01/29 06:28:13;;;;;;;0.43;0.40;;;;;;;;;;5056016;28;20246;-73
2022/01/29 06:30:41;;;;;;;0.73;0.50;;;;;;;;;;5056361;28;20702;-71
2022/01/29 06:33:11;;;;;;;0.60;0.60;;;;;;;;;;5055951;28;20203;-72
2022/01/29 06:35:38;;;;;;;1.80;1.17;;;;;;;;;;5058013;28;20210;-72
2022/01/29 06:38:06;;;;;;;0.63;0.63;;;;;;;;;;5063123;28;20207;-72
2022/01/29 06:40:34;;;;;;;4.67;2.17;;;;;;;;;;5061726;28;20569;-74
2022/01/29 06:43:03;;;;;;;5.27;1.13;;;;;;;;;;5063959;28;20530;-72
2022/01/29 06:45:31;;;;;;;4.17;0.90;;;;;;;;;;5063353;28;20225;-72
2022/01/29 06:47:59;;;;;;;0.50;0.50;;;;;;;;;;5060261;28;22777;-72
2022/01/29 06:50:28;;;;;;;1.73;1.00;;;;;;;;;;5060876;28;20222;-72
2022/01/29 06:52:56;;;;;;;1.27;1.13;;;;;;;;;;5060388;28;20199;-72
2022/01/29 06:55:23;;;;;;;0.63;0.57;;;;;;;;;;5063091;28;20206;-72
2022/01/29 06:57:51;;;;;;;1.30;0.63;;;;;;;;;;5062384;28;20198;-72
2022/01/29 07:00:18;;;;;;;0.50;0.50;;;;;;;;;;5065129;28;20214;-73
2022/01/29 07:02:46;;;;;;;6.27;0.60;;;;;;;;;;5064853;28;20663;-72
2022/01/29 07:05:13;;;;;;;1.50;1.17;;;;;;;;;;5060586;28;20539;-73
2022/01/29 07:07:42;;;;;;;2.10;0.80;;;;;;;;;;5062095;28;20603;-72
2022/01/29 07:10:10;;;;;;;4.83;1.10;;;;;;;;;;5061920;28;20207;-72
2022/01/29 07:12:38;;;;;;;1.13;0.97;;;;;;;;;;5063340;28;20210;-72
2022/01/29 07:15:06;;;;;;;0.60;0.60;;;;;;;;;;5061977;28;20202;-72
2022/01/29 07:17:33;;;;;;;0.20;0.20;;;;;;;;;;5062557;28;20198;-72
2022/01/29 07:20:00;;;;;;;0.50;0.50;;;;;;;;;;5063282;28;20199;-71
2022/01/29 07:22:28;;;;;;;0.77;0.77;;;;;;;;;;5060034;28;20198;-72
2022/01/29 07:24:57;;;;;;;1.77;0.90;;;;;;;;;;5061821;28;20637;-72
2022/01/29 07:27:24;;;;;;;0.20;0.20;;;;;;;;;;5063770;28;20294;-71
2022/01/29 07:29:51;;;;;;;6.40;0.83;;;;;;;;;;5064710;28;20227;-71
2022/01/29 07:32:19;;;;;;;0.17;0.17;;;;;;;;;;5065555;28;20202;-73
2022/01/29 07:34:46;;;;;;;0.47;0.13;;;;;;;;;;5055723;28;20215;-71
2022/01/29 07:37:13;;;;;;;0.10;0.10;;;;;;;;;;5053687;28;20203;-70
2022/01/29 07:39:41;;;;;;;0.00;0.00;;;;;;;;;;5055598;28;20206;-74
2022/01/29 07:42:10;;;;;;;5.20;0.33;;;;;;;;;;5061994;28;20694;-74
2022/01/29 07:44:38;;;;;;;1.90;0.17;;;;;;;;;;5062940;28;20206;-71
2022/01/29 07:47:05;;;;;;;0.40;0.40;;;;;;;;;;5062251;28;20798;-72
2022/01/29 07:49:33;;;;;;;1.67;0.83;;;;;;;;;;5063342;28;20210;-68
2022/01/29 07:52:00;;;;;;;0.70;0.50;;;;;;;;;;5061108;28;20632;-68
2022/01/29 07:54:27;;;;;;;0.50;0.50;;;;;;;;;;5062482;28;20195;-74
2022/01/29 07:56:54;;;;;;;0.60;0.60;;;;;;;;;;5053364;28;20649;-73
2022/01/29 07:59:23;;;;;;;0.60;0.40;;;;;;;;;;5061399;28;20225;-73
2022/01/29 08:01:50;;;;;;;0.63;0.63;;;;;;;;;;5057784;28;20680;-73
2022/01/29 08:04:19;;;;;;;1.07;0.70;;;;;;;;;;5058688;28;20537;-73
2022/01/29 08:06:47;;;;;;;0.67;0.67;;;;;;;;;;5065392;28;20289;-73
2022/01/29 08:09:14;;;;;;;1.00;0.87;;;;;;;;;;5063694;28;20222;-72
2022/01/29 08:11:42;;;;;;;0.80;0.47;;;;;;;;;;5063031;28;20206;-73
2022/01/29 08:14:09;;;;;;;0.43;0.43;;;;;;;;;;5061785;28;20896;-73
2022/01/29 08:16:38;;;;;;;1.10;1.00;;;;;;;;;;5061505;28;20203;-70
2022/01/29 08:19:05;;;;;;;5.07;0.70;;;;;;;;;;5061837;28;20207;-72
2022/01/29 08:21:32;;;;;;;1.53;0.60;;;;;;;;;;5061625;28;20210;-73
2022/01/29 08:24:00;;;;;;;0.63;0.63;;;;;;;;;;5059611;28;20568;-73
2022/01/29 08:26:28;;;;;;;1.20;0.60;;;;;;;;;;5054046;28;20202;-72
2022/01/29 08:28:56;;;;;;;0.90;0.90;;;;;;;;;;5053691;28;20496;-73
2022/01/29 08:31:24;;;;;;;0.90;0.90;;;;;;;;;;5059014;28;20659;-74
2022/01/29 08:33:52;;;;;;;0.90;0.73;;;;;;;;;;5054500;28;20203;-73
2022/01/29 08:36:20;;;;;;;1.00;0.97;;;;;;;;;;5054960;28;20446;-69
2022/01/29 08:38:47;;;;;;;6.70;1.87;;;;;;;;;;5054061;28;20687;-73
2022/01/29 08:41:14;;;;;;;1.37;0.53;;;;;;;;;;5054431;28;20202;-73
2022/01/29 08:43:42;;;;;;;1.50;0.83;;;;;;;;;;5054488;28;20222;-73
2022/01/29 08:46:09;;;;;;;0.70;0.67;;;;;;;;;;5053015;28;20199;-74
2022/01/29 08:48:36;;;;;;;0.40;0.40;;;;;;;;;;5053866;28;20223;-74
2022/01/29 08:51:05;;;;;;;0.70;0.67;;;;;;;;;;5055566;28;20882;-71
2022/01/29 08:53:34;;;;;;;0.87;0.83;;;;;;;;;;5053243;28;20236;-73
2022/01/29 08:56:01;;;;;;;1.43;0.40;;;;;;;;;;5053088;28;20207;-73
2022/01/29 08:58:28;;;;;;;0.63;0.60;;;;;;;;;;5053910;28;20207;-73
2022/01/29 09:00:56;;;;;;;0.50;0.50;;;;;;;;;;5054910;28;20723;-71
2022/01/29 09:03:24;;;;;;;0.30;0.30;;;;;;;;;;5053549;28;20191;-72
2022/01/29 09:05:51;;;;;;;0.80;0.57;;;;;;;;;;5053838;28;20203;-73
2022/01/29 09:08:20;;;;;;;0.90;0.30;;;;;;;;;;5053966;28;20691;-72
2022/01/29 09:10:48;;;;;;;1.00;0.20;;;;;;;;;;5054145;28;20215;-72
2022/01/29 09:13:15;;;;;;;0.37;0.20;;;;;;;;;;5054367;28;20183;-73
2022/01/29 09:15:43;;;;;;;0.60;0.37;;;;;;;;;;5052786;28;20226;-73
2022/01/29 09:18:10;;;;;;;2.13;0.73;;;;;;;;;;5054840;28;20544;-72
2022/01/29 09:20:38;;;;;;;7.67;2.37;;;;;;;;;;5053362;28;20195;-71
2022/01/29 09:23:06;;;;;;;0.87;0.30;;;;;;;;;;5052067;28;20221;-72
2022/01/29 09:25:36;;;;;;;0.20;0.20;;;;;;;;;;5051754;28;20203;-75
2022/01/29 09:28:03;;;;;;;9.10;1.20;;;;;;;;;;5055755;28;20699;-72
2022/01/29 09:30:31;;;;;;;1.70;0.30;;;;;;;;;;5054407;28;20263;-72
2022/01/29 09:32:58;;;;;;;0.50;0.30;;;;;;;;;;5053876;28;20652;-73
2022/01/29 09:35:26;;;;;;;0.20;0.20;;;;;;;;;;5055216;28;20206;-72
2022/01/29 09:37:54;;;;;;;0.33;0.33;;;;;;;;;;5053023;28;20214;-74
2022/01/29 09:40:21;;;;;;;2.13;0.30;;;;;;;;;;5054388;28;20202;-72
2022/01/29 09:42:51;;;;;;;0.30;0.27;;;;;;;;;;5052703;28;20206;-73
2022/01/29 09:45:21;;;;;;;2.23;2.03;;;;;;;;;;5053347;28;20203;-72
2022/01/29 09:47:49;;;;;;;0.20;0.20;;;;;;;;;;5053299;28;20256;-72
2022/01/29 09:50:17;;;;;;;0.50;0.50;;;;;;;;;;5054873;28;20232;-72
2022/01/29 09:52:45;;;;;;;0.13;0.13;;;;;;;;;;5052226;28;20559;-74
2022/01/29 09:55:13;;;;;;;0.70;0.70;;;;;;;;;;5053103;28;20206;-72
2022/01/29 09:57:40;;;;;;;2.10;1.23;;;;;;;;;;5054037;28;20670;-73
2022/01/29 10:00:10;;;;;;;0.27;0.23;;;;;;;;;;5053912;28;20231;-74
2022/01/29 10:02:38;;;;;;;0.70;0.47;;;;;;;;;;5054209;28;20248;-73
2022/01/29 10:05:07;;;;;;;0.27;0.27;;;;;;;;;;5054572;28;20195;-73
2022/01/29 10:07:35;;;;;;;0.93;0.67;;;;;;;;;;5053113;28;20198;-72
2022/01/29 10:10:03;;;;;;;0.50;0.40;;;;;;;;;;5052807;28;20608;-72
2022/01/29 10:12:31;;;;;;;0.00;0.00;;;;;;;;;;5053764;28;20542;-72
2022/01/29 10:14:59;;;;;;;3.60;0.57;;;;;;;;;;5060813;28;21364;-76
2022/01/29 10:17:51;;;;;;;0.20;0.20;;;;;;;;;;5056303;28;20198;-72
2022/01/29 10:20:22;;;;;;;0.10;0.10;;;;;;;;;;5049426;28;20195;-76
2022/01/29 10:22:52;;;;;;;0.40;0.20;;;;;;;;;;5053868;28;20276;-71
2022/01/29 10:25:20;;;;;;;4.80;1.90;;;;;;;;;;5052621;28;20203;-70
2022/01/29 10:28:07;;;;;;;0.00;0.00;;;;;;;;;;5053958;28;20210;-73
2022/01/29 10:30:36;;;;;;;0.20;0.20;;;;;;;;;;5052405;28;20199;-75
2022/01/29 10:33:17;;;;;;;1.30;1.20;;;;;;;;;;5053594;28;20545;-76
2022/01/29 10:35:47;;;;;;;0.50;0.50;;;;;;;;;;5054694;28;20195;-69
2022/01/29 10:38:14;;;;;;;1.00;0.30;;;;;;;;;;5053250;28;20348;-74
2022/01/29 10:40:41;;;;;;;0.20;0.20;;;;;;;;;;5047770;28;20211;-72
2022/01/29 10:43:10;;;;;;;0.90;0.20;;;;;;;;;;5054340;28;20190;-71
2022/01/29 10:45:38;;;;;;;0.53;0.37;;;;;;;;;;5052287;28;20199;-75
2022/01/29 10:48:06;;;;;;;0.20;0.20;;;;;;;;;;5054297;28;20199;-74
2022/01/29 10:50:34;;;;;;;0.20;0.20;;;;;;;;;;5058356;28;20193;-70
2022/01/29 10:53:16;;;;;;;0.10;0.10;;;;;;;;;;5060177;28;20895;-75
2022/01/29 10:58:45;;;;;;;0.47;0.43;;;;;;;;;;5123574;27;20280;-74
2022/01/29 11:01:13;;;;;;;0.40;0.40;;;;;;;;;;5107893;28;20192;-74
2022/01/29 11:03:41;;;;;;;0.20;0.20;;;;;;;;;;5107498;28;20284;-74
2022/01/29 11:06:09;;;;;;;2.03;0.40;;;;;;;;;;5102971;28;20213;-75
2022/01/29 11:08:38;;;;;;;0.37;0.20;;;;;;;;;;5104146;28;20634;-75
2022/01/29 11:11:06;;;;;;;1.30;0.67;;;;;;;;;;5107597;28;20224;-75
2022/01/29 11:13:34;;;;;;;3.70;0.40;;;;;;;;;;5103777;28;20193;-75
2022/01/29 11:16:03;;;;;;;5.00;0.97;;;;;;;;;;5105740;28;20197;-75
2022/01/29 11:18:31;;;;;;;0.70;0.27;;;;;;;;;;5103361;28;20564;-74
2022/01/29 11:20:58;;;;;;;1.07;0.77;;;;;;;;;;5106246;28;20186;-74
2022/01/29 11:23:27;;;;;;;0.60;0.60;;;;;;;;;;5102686;28;20244;-75
2022/01/29 11:25:55;;;;;;;1.30;0.67;;;;;;;;;;5098005;28;20204;-76
2022/01/29 11:28:26;;;;;;;3.20;0.40;;;;;;;;;;5098969;28;20230;-77
2022/01/29 11:31:13;;;;;;;0.83;0.27;;;;;;;;;;5100091;28;20197;-76
2022/01/29 11:33:55;;;;;;;0.50;0.50;;;;;;;;;;5104676;28;20229;-77
2022/01/29 11:36:24;;;;;;;4.80;0.63;;;;;;;;;;5104632;28;20203;-77
2022/01/29 11:38:51;;;;;;;1.57;0.30;;;;;;;;;;5104982;28;20194;-76
2022/01/29 11:41:19;;;;;;;2.57;0.73;;;;;;;;;;5101041;28;20667;-78
2022/01/29 11:43:46;;;;;;;0.20;0.20;;;;;;;;;;5098783;28;20226;-75
2022/01/29 11:46:31;;;;;;;0.33;0.33;;;;;;;;;;5102062;28;20707;-75
2022/01/29 11:49:00;;;;;;;1.40;0.57;;;;;;;;;;5099796;28;20209;-76
2022/01/29 11:51:43;;;;;;;4.70;0.93;;;;;;;;;;5100624;28;20202;-77
2022/01/29 11:54:11;;;;;;;0.80;0.80;;;;;;;;;;5104834;28;20652;-76
2022/01/29 11:56:40;;;;;;;4.57;0.10;;;;;;;;;;5096454;28;20226;-75
2022/01/29 11:59:26;;;;;;;2.10;0.87;;;;;;;;;;5093063;28;20186;-75
2022/01/29 12:01:54;;;;;;;1.50;0.60;;;;;;;;;;5093444;28;20241;-76
2022/01/29 12:04:22;;;;;;;1.47;0.80;;;;;;;;;;5094466;28;20573;-76
2022/01/29 12:07:14;;;;;;;0.30;0.30;;;;;;;;;;5094137;28;20259;-76
2022/01/29 12:09:44;;;;;;;1.07;0.83;;;;;;;;;;5080046;28;20240;-76
2022/01/29 12:12:19;;;;;;;1.37;0.40;;;;;;;;;;5081630;28;20660;-75
2022/01/29 12:14:48;;;;;;;2.17;1.13;;;;;;;;;;5081432;28;20212;-76
2022/01/29 12:17:35;;;;;;;1.10;0.57;;;;;;;;;;5080175;28;20194;-76
2022/01/29 12:20:03;;;;;;;0.30;0.30;;;;;;;;;;5080030;28;20244;-76
2022/01/29 12:22:34;;;;;;;0.00;0.00;;;;;;;;;;5079282;28;20198;-75
2022/01/29 12:25:02;;;;;;;0.30;0.30;;;;;;;;;;5081559;28;20251;-75
2022/01/29 12:27:40;;;;;;;1.03;0.40;;;;;;;;;;5079007;28;20210;-75
2022/01/29 12:30:09;;;;;;;0.10;0.10;;;;;;;;;;5074666;28;20195;-75
2022/01/29 12:32:36;;;;;;;0.03;0.00;;;;;;;;;;5075214;28;20209;-75
2022/01/29 12:35:04;;;;;;;5.33;0.40;;;;;;;;;;5074346;28;20206;-75
2022/01/29 12:37:32;;;;;;;0.07;0.07;;;;;;;;;;5076834;28;20202;-76
2022/01/29 12:40:17;;;;;;;1.33;0.77;;;;;;;;;;5078600;28;20203;-76
2022/01/29 12:42:54;;;;;;;0.33;0.27;;;;;;;;;;5076207;28;20275;-75
2022/01/29 12:45:22;;;;;;;0.53;0.20;;;;;;;;;;5080124;28;20200;-76
2022/01/29 12:47:49;;;;;;;1.23;0.97;;;;;;;;;;5078397;28;20221;-75
2022/01/29 12:50:21;;;;;;;0.10;0.10;;;;;;;;;;5079833;28;20198;-77
2022/01/29 12:53:05;;;;;;;0.20;0.10;;;;;;;;;;5079764;28;20240;-78
2022/01/29 12:55:32;;;;;;;1.60;0.40;;;;;;;;;;5079784;28;20230;-77
2022/01/29 12:57:59;;;;;;;6.23;0.83;;;;;;;;;;5078027;28;20237;-76
2022/01/29 13:00:27;;;;;;;1.10;0.40;;;;;;;;;;5075280;28;20209;-71
2022/01/29 13:03:03;;;;;;;0.50;0.30;;;;;;;;;;5075696;28;20206;-77
2022/01/29 13:05:30;;;;;;;0.20;0.20;;;;;;;;;;5074572;28;20347;-79
2022/01/29 13:07:59;;;;;;;3.10;0.87;;;;;;;;;;5075867;28;20229;-79
2022/01/29 13:10:32;;;;;;;0.87;0.17;;;;;;;;;;5077005;28;20202;-71
2022/01/29 13:13:00;;;;;;;0.97;0.20;;;;;;;;;;5076601;28;20202;-74
2022/01/29 13:15:35;;;;;;;0.40;0.40;;;;;;;;;;5077882;28;20364;-69
2022/01/29 13:18:02;;;;;;;0.17;0.17;;;;;;;;;;5075468;28;20697;-76
2022/01/29 13:20:30;;;;;;;0.20;0.10;;;;;;;;;;5078749;28;20202;-76
2022/01/29 13:22:59;;;;;;;1.30;0.67;;;;;;;;;;5080282;28;20187;-76
2022/01/29 13:25:29;;;;;;;6.13;0.83;;;;;;;;;;5079983;28;20201;-77
2022/01/29 13:28:07;;;;;;;2.33;0.80;;;;;;;;;;5077727;28;20588;-77
2022/01/29 13:30:35;;;;;;;1.50;0.87;;;;;;;;;;5077541;28;20194;-77
2022/01/29 13:33:10;;;;;;;1.63;0.87;;;;;;;;;;5080405;28;20186;-77
2022/01/29 13:35:43;;;;;;;1.73;1.20;;;;;;;;;;5077693;28;20204;-77
2022/01/29 13:38:23;;;;;;;1.07;0.60;;;;;;;;;;5078429;28;20210;-77
2022/01/29 13:40:51;;;;;;;4.87;1.00;;;;;;;;;;5079023;28;20198;-77
2022/01/29 13:43:26;;;;;;;1.00;0.63;;;;;;;;;;5078235;28;20197;-77
2022/01/29 13:45:54;;;;;;;1.37;1.00;;;;;;;;;;5077072;28;20205;-76
2022/01/29 13:48:22;;;;;;;0.77;0.77;;;;;;;;;;5079024;28;20218;-76
2022/01/29 13:50:51;;;;;;;1.40;1.03;;;;;;;;;;5079154;28;20194;-75
2022/01/29 13:53:19;;;;;;;1.73;0.73;;;;;;;;;;5076929;28;20194;-76
2022/01/29 13:56:02;;;;;;;3.00;0.77;;;;;;;;;;5080315;28;20198;-77
2022/01/29 13:58:44;;;;;;;0.43;0.43;;;;;;;;;;5073755;28;20245;-77
2022/01/29 14:01:11;;;;;;;0.77;0.40;;;;;;;;;;5076399;28;20578;-74
2022/01/29 14:03:43;;;;;;;0.50;0.23;;;;;;;;;;5075519;28;21049;-76
2022/01/29 14:06:36;;;;;;;1.67;0.57;;;;;;;;;;5074828;28;20189;-76
2022/01/29 14:09:20;;;;;;;2.53;0.50;;;;;;;;;;5064976;28;20308;-76
2022/01/29 14:12:11;;;;;;;2.10;0.60;;;;;;;;;;5080924;28;20749;-74
2022/01/29 14:14:42;;;;;;;0.30;0.30;;;;;;;;;;5056164;28;20311;-74
2022/01/29 14:17:10;;;;;;;0.50;0.40;;;;;;;;;;5071676;28;20574;-75
2022/01/29 14:19:38;;;;;;;0.60;0.40;;;;;;;;;;5072556;28;20551;-73
2022/01/29 14:22:07;;;;;;;2.93;0.90;;;;;;;;;;5071702;28;20211;-76
2022/01/29 14:24:34;;;;;;;6.13;1.43;;;;;;;;;;5072851;28;20205;-75
2022/01/29 14:27:02;;;;;;;0.73;0.20;;;;;;;;;;5074224;28;20202;-75
2022/01/29 14:29:30;;;;;;;1.80;0.63;;;;;;;;;;5078338;28;20221;-77
2022/01/29 14:31:59;;;;;;;0.93;0.50;;;;;;;;;;5078213;28;20202;-74
2022/01/29 14:34:26;;;;;;;0.50;0.50;;;;;;;;;;5072327;28;20203;-72
2022/01/29 14:36:55;;;;;;;3.90;1.77;;;;;;;;;;5072550;28;20222;-72
2022/01/29 14:39:24;;;;;;;0.80;0.50;;;;;;;;;;5075798;28;20194;-73
2022/01/29 14:41:52;;;;;;;3.90;0.83;;;;;;;;;;5078960;28;20651;-75
2022/01/29 14:44:19;;;;;;;0.73;0.50;;;;;;;;;;5078377;28;20675;-79
2022/01/29 14:46:46;;;;;;;0.57;0.57;;;;;;;;;;5074832;28;20201;-75
2022/01/29 14:49:16;;;;;;;2.40;1.43;;;;;;;;;;5072021;28;20250;-74
2022/01/29 14:51:45;;;;;;;1.43;1.07;;;;;;;;;;5073815;28;20198;-76
2022/01/29 14:54:14;;;;;;;5.43;0.77;;;;;;;;;;5075178;28;20198;-75
2022/01/29 14:56:42;;;;;;;2.67;0.60;;;;;;;;;;5071101;28;20243;-75
2022/01/29 14:59:10;;;;;;;7.87;1.40;;;;;;;;;;5077564;28;20201;-76
2022/01/29 15:01:37;;;;;;;3.33;1.20;;;;;;;;;;5087651;28;20279;-75
2022/01/29 15:04:05;;;;;;;5.50;0.80;;;;;;;;;;5087728;28;20194;-76
2022/01/29 15:06:33;;;;;;;2.03;1.10;;;;;;;;;;5086465;28;20202;-76
2022/01/29 15:09:01;;;;;;;10.23;0.80;;;;;;;;;;5092604;28;20710;-75